Time;durP1;ratioP1;P1;durP2;ratioP2;P2;SDS_P1;SDS_P2;PMS_P1;PMS_P2;Temp;Humidity;BMP_temperature;BMP_pressure;BME280_temperature;BME280_humidity;BME280_pressure;Samples;Min_cycle;Max_cycle;Signal;HPM_P1;HPM_P2
2023/12/30 00:00:28;;;;;;;;;;;;;;;8.58;54.49;101847.61;107078;1256;25334;-52
2023/12/30 00:02:55;;;;;;;;;;;;;;;8.61;54.67;101847.79;107167;1259;25359;-52
2023/12/30 00:05:25;;;;;;;;;;;;;;;8.64;54.76;101849.52;106999;1256;25344;-52
2023/12/30 00:07:51;;;;;;;;;;;;;;;8.66;54.68;101850.58;107143;1256;25301;-52
2023/12/30 00:10:19;;;;;;;;;;;;;;;8.68;54.86;101851.45;106874;1256;397707;-52
2023/12/30 00:12:46;;;;;;;;;;;;;;;8.71;54.98;101857.85;107159;1256;25316;-51
2023/12/30 00:15:13;;;;;;;;;;;;;;;8.73;55.11;101858.55;107198;1259;25306;-52
2023/12/30 00:17:41;;;;;;;;;;;;;;;8.76;55.15;101857.01;107116;1256;25419;-51
2023/12/30 00:20:08;;;;;;;;;;;;;;;8.77;55.11;101860.46;107127;1257;24166;-51
2023/12/30 00:22:35;;;;;;;;;;;;;;;8.80;55.31;101862.55;107111;1256;25386;-51
2023/12/30 00:25:02;;;;;;;;;;;;;;;8.83;55.42;101863.27;107128;1259;25318;-51
2023/12/30 00:27:29;;;;;;;;;;;;;;;8.86;55.50;101861.89;107045;1255;24332;-51
2023/12/30 00:29:56;;;;;;;;;;;;;;;8.89;55.43;101856.70;107031;1257;25458;-51
2023/12/30 00:32:22;;;;;;;;;;;;;;;8.91;55.63;101852.72;106479;1257;1002590;-51
2023/12/30 00:34:49;;;;;;;;;;;;;;;8.94;55.56;101853.59;106913;1259;25460;-51
2023/12/30 00:37:19;;;;;;;;;;;;;;;8.96;55.65;101849.96;106405;1267;1003757;-52
2023/12/30 00:39:46;;;;;;;;;;;;;;;8.99;55.55;101849.63;107054;1254;22793;-52
2023/12/30 00:42:13;;;;;;;;;;;;;;;9.01;55.49;101848.77;106842;1259;25388;-53
2023/12/30 00:44:40;;;;;;;;;;;;;;;9.04;55.42;101851.89;107200;1257;25345;-51
2023/12/30 00:47:08;;;;;;;;;;;;;;;9.05;55.43;101848.60;106862;1271;25350;-51
2023/12/30 00:49:35;;;;;;;;;;;;;;;9.07;55.31;101851.20;106865;1269;25460;-51
2023/12/30 00:52:02;;;;;;;;;;;;;;;9.09;55.37;101847.21;107076;1259;25310;-52
2023/12/30 00:54:29;;;;;;;;;;;;;;;9.10;55.49;101845.84;106958;1258;25468;-52
2023/12/30 00:57:07;;;;;;;;;;;;;;;9.13;55.42;101837.36;107075;1255;25465;-51
2023/12/30 00:59:34;;;;;;;;;;;;;;;9.14;55.43;101838.05;107231;1259;25344;-51
2023/12/30 01:02:01;;;;;;;;;;;;;;;9.17;55.69;101835.98;106880;1258;24422;-51
2023/12/30 01:04:28;;;;;;;;;;;;;;;9.20;55.71;101834.08;107236;1256;25319;-52
2023/12/30 01:06:55;;;;;;;;;;;;;;;9.22;55.85;101834.42;107077;1257;25334;-51
2023/12/30 01:09:22;;;;;;;;;;;;;;;9.24;55.92;101832.71;107101;1259;25332;-51
2023/12/30 01:11:49;;;;;;;;;;;;;;;9.26;55.90;101833.41;106847;1259;25355;-51
2023/12/30 01:14:16;;;;;;;;;;;;;;;9.28;55.84;101836.85;107153;1257;25390;-51
2023/12/30 01:16:43;;;;;;;;;;;;;;;9.29;55.78;101831.33;107067;1266;23159;-51
2023/12/30 01:19:10;;;;;;;;;;;;;;;9.30;55.67;101833.57;107061;1259;25326;-51
2023/12/30 01:21:37;;;;;;;;;;;;;;;9.32;55.73;101834.45;106420;1256;1003435;-51
2023/12/30 01:24:05;;;;;;;;;;;;;;;9.33;55.76;101829.95;107072;1257;25305;-51
2023/12/30 01:26:32;;;;;;;;;;;;;;;9.33;55.77;101825.09;107116;1259;25463;-52
2023/12/30 01:28:58;;;;;;;;;;;;;;;9.34;55.93;101823.52;107060;1255;22505;-51
2023/12/30 01:31:25;;;;;;;;;;;;;;;9.35;55.83;101822.14;106102;1259;1003046;-51
2023/12/30 01:33:53;;;;;;;;;;;;;;;9.37;55.82;101816.44;107138;1256;25320;-52
2023/12/30 01:36:20;;;;;;;;;;;;;;;9.39;55.96;101813.14;107175;1267;24260;-51
2023/12/30 01:38:47;;;;;;;;;;;;;;;9.41;55.87;101810.89;106856;1265;25360;-51
2023/12/30 01:41:14;;;;;;;;;;;;;;;9.42;55.73;101804.99;107078;1257;25319;-51
2023/12/30 01:43:41;;;;;;;;;;;;;;;9.44;55.82;101800.84;106977;1259;25338;-52
2023/12/30 01:46:08;;;;;;;;;;;;;;;9.45;55.75;101803.09;107083;1258;25299;-52
2023/12/30 01:48:36;;;;;;;;;;;;;;;9.46;55.79;101798.95;107097;1255;22508;-51
2023/12/30 01:51:03;;;;;;;;;;;;;;;9.47;55.82;101797.02;107098;1270;25319;-51
2023/12/30 01:53:35;;;;;;;;;;;;;;;9.47;55.70;101799.97;107181;1259;25396;-51
2023/12/30 01:56:02;;;;;;;;;;;;;;;9.49;55.84;101801.88;107160;1256;25345;-51
2023/12/30 01:58:29;;;;;;;;;;;;;;;9.50;55.87;101802.05;106969;1259;25321;-51
2023/12/30 02:00:56;;;;;;;;;;;;;;;9.52;55.77;101805.33;106983;1269;25307;-51
2023/12/30 02:03:23;;;;;;;;;;;;;;;9.53;55.91;101801.01;107139;1265;25357;-52
2023/12/30 02:05:50;;;;;;;;;;;;;;;9.54;55.97;101797.71;107112;1259;25396;-51
2023/12/30 02:08:17;;;;;;;;;;;;;;;9.56;56.04;101797.53;107160;1253;25309;-51
2023/12/30 02:10:44;;;;;;;;;;;;;;;9.58;56.12;101794.42;107202;1256;25434;-51
2023/12/30 02:13:11;;;;;;;;;;;;;;;9.60;56.09;101793.89;106825;1261;25340;-52
2023/12/30 02:15:38;;;;;;;;;;;;;;;9.61;56.17;101791.47;105901;1265;1002542;-51
2023/12/30 02:18:05;;;;;;;;;;;;;;;9.63;56.11;101795.45;106859;1268;25396;-51
2023/12/30 02:20:33;;;;;;;;;;;;;;;9.65;56.30;101800.64;107158;1265;25340;-51
2023/12/30 02:23:00;;;;;;;;;;;;;;;9.67;56.25;101800.83;107081;1253;24238;-51
2023/12/30 02:25:27;;;;;;;;;;;;;;;9.70;56.45;101800.98;107188;1259;25324;-52
2023/12/30 02:27:54;;;;;;;;;;;;;;;9.73;56.39;101801.85;106239;1257;1003435;-52
2023/12/30 02:30:23;;;;;;;;;;;;;;;9.74;56.48;101801.33;107150;1259;23154;-52
2023/12/30 02:32:51;;;;;;;;;;;;;;;9.77;56.37;101798.20;106955;1258;25262;-52
2023/12/30 02:35:18;;;;;;;;;;;;;;;9.79;56.56;101796.46;106757;1274;25309;-52
2023/12/30 02:37:45;;;;;;;;;;;;;;;9.81;56.39;101796.81;106830;1271;25316;-51
2023/12/30 02:40:12;;;;;;;;;;;;;;;9.83;56.52;101800.27;107173;1256;22504;-51
2023/12/30 02:42:39;;;;;;;;;;;;;;;9.85;56.46;101798.88;107159;1256;22511;-51
2023/12/30 02:45:07;;;;;;;;;;;;;;;9.87;56.66;101799.39;107172;1256;25314;-52
2023/12/30 02:47:34;;;;;;;;;;;;;;;9.89;56.62;101796.62;107146;1256;25559;-52
2023/12/30 02:50:01;;;;;;;;;;;;;;;9.91;56.45;101799.04;107101;1264;25344;-52
2023/12/30 02:52:30;;;;;;;;;;;;;;;9.92;56.57;101804.23;106039;1269;1002920;-52
2023/12/30 02:54:57;;;;;;;;;;;;;;;9.89;56.41;101799.91;107072;1257;25211;-52
2023/12/30 02:57:25;;;;;;;;;;;;;;;9.88;56.44;101802.15;106073;1268;1003227;-51
2023/12/30 02:59:52;;;;;;;;;;;;;;;9.89;56.47;101803.03;106968;1266;22521;-52
2023/12/30 03:02:19;;;;;;;;;;;;;;;9.90;56.44;101804.42;106330;1266;1003507;-52
2023/12/30 03:04:46;;;;;;;;;;;;;;;9.89;56.52;101806.15;107092;1256;24198;-52
2023/12/30 03:07:13;;;;;;;;;;;;;;;9.89;56.41;101802.87;107075;1258;25320;-52
2023/12/30 03:09:40;;;;;;;;;;;;;;;9.86;56.36;101802.86;107119;1259;25419;-51
2023/12/30 03:12:08;;;;;;;;;;;;;;;9.81;56.34;101805.13;106967;1270;25316;-52
2023/12/30 03:14:36;;;;;;;;;;;;;;;9.75;56.26;101810.00;107155;1257;25466;-52
2023/12/30 03:17:03;;;;;;;;;;;;;;;9.67;56.45;101813.65;107153;1253;25327;-52
2023/12/30 03:19:30;;;;;;;;;;;;;;;9.59;56.44;101810.70;106973;1259;25452;-52
2023/12/30 03:21:58;;;;;;;;;;;;;;;9.53;56.55;101809.48;107085;1257;25309;-52
2023/12/30 03:24:25;;;;;;;;;;;;;;;9.52;56.60;101814.00;107089;1256;25468;-52
2023/12/30 03:26:53;;;;;;;;;;;;;;;9.54;56.78;101813.66;107146;1259;25344;-52
2023/12/30 03:29:20;;;;;;;;;;;;;;;9.57;56.73;101819.17;107094;1255;22502;-52
2023/12/30 03:31:47;;;;;;;;;;;;;;;9.59;56.87;101813.64;106804;1259;25335;-52
2023/12/30 03:34:14;;;;;;;;;;;;;;;9.62;56.75;101816.41;106318;1254;1002646;-52
2023/12/30 03:36:42;;;;;;;;;;;;;;;9.65;56.71;101815.02;107095;1255;25306;-52
2023/12/30 03:39:10;;;;;;;;;;;;;;;9.56;57.09;101814.69;107165;1259;25453;-52
2023/12/30 03:41:37;;;;;;;;;;;;;;;9.68;56.62;101819.54;106818;1262;25337;-52
2023/12/30 03:44:03;;;;;;;;;;;;;;;9.72;56.54;101822.64;106136;1267;1003326;-52
2023/12/30 03:46:31;;;;;;;;;;;;;;;9.74;56.40;101820.75;107081;1254;25337;-54
2023/12/30 03:48:57;;;;;;;;;;;;;;;9.75;56.37;101823.16;107052;1258;22552;-52
2023/12/30 03:51:24;;;;;;;;;;;;;;;9.76;56.37;101825.41;106398;1264;1003519;-52
2023/12/30 03:53:51;;;;;;;;;;;;;;;9.77;56.26;101830.61;106974;1266;25353;-52
2023/12/30 03:56:18;;;;;;;;;;;;;;;9.79;56.25;101829.91;106913;1270;25306;-52
2023/12/30 03:58:45;;;;;;;;;;;;;;;9.79;56.20;101828.69;106833;1274;25319;-52
2023/12/30 04:01:12;;;;;;;;;;;;;;;9.77;56.03;101826.80;107109;1259;24352;-52
2023/12/30 04:03:40;;;;;;;;;;;;;;;9.73;56.04;101824.90;107126;1267;25338;-52
2023/12/30 04:06:14;;;;;;;;;;;;;;;9.70;55.88;101823.00;107095;1262;25367;-52
2023/12/30 04:08:41;;;;;;;;;;;;;;;9.69;55.89;101826.81;106831;1260;25306;-52
2023/12/30 04:11:08;;;;;;;;;;;;;;;9.68;55.83;101824.22;107020;1265;25435;-52
2023/12/30 04:13:35;;;;;;;;;;;;;;;9.69;55.69;101819.52;106946;1271;25364;-52
2023/12/30 04:16:03;;;;;;;;;;;;;;;9.69;55.75;101818.84;106380;1258;1002984;-52
2023/12/30 04:18:30;;;;;;;;;;;;;;;9.68;55.68;101819.88;107075;1261;25319;-52
2023/12/30 04:20:57;;;;;;;;;;;;;;;9.68;55.65;101824.22;106792;1261;25502;-52
2023/12/30 04:23:24;;;;;;;;;;;;;;;9.67;55.65;101825.44;106948;1260;24185;-52
2023/12/30 04:25:51;;;;;;;;;;;;;;;9.67;55.57;101820.40;107123;1259;25318;-52
2023/12/30 04:28:18;;;;;;;;;;;;;;;9.67;55.57;101819.54;107060;1257;25449;-52
2023/12/30 04:30:45;;;;;;;;;;;;;;;9.67;55.59;101820.74;107015;1260;25287;-52
2023/12/30 04:33:12;;;;;;;;;;;;;;;9.67;55.49;101824.39;106840;1269;25456;-52
2023/12/30 04:35:41;;;;;;;;;;;;;;;9.68;55.39;101824.22;107049;1270;25321;-52
2023/12/30 04:38:08;;;;;;;;;;;;;;;9.68;55.33;101824.21;106996;1266;25309;-54
2023/12/30 04:40:35;;;;;;;;;;;;;;;9.67;55.18;101823.70;106939;1260;22514;-52
2023/12/30 04:43:02;;;;;;;;;;;;;;;9.65;55.02;101821.95;106938;1257;25299;-52
2023/12/30 04:45:29;;;;;;;;;;;;;;;9.64;55.09;101823.52;106835;1259;24372;-52
2023/12/30 04:47:56;;;;;;;;;;;;;;;9.62;55.01;101822.13;106422;1260;25376;-52
2023/12/30 04:50:25;;;;;;;;;;;;;;;9.62;55.02;101823.70;106736;1260;25337;-52
2023/12/30 04:52:52;;;;;;;;;;;;;;;9.61;55.10;101824.04;106887;1271;25312;-52
2023/12/30 04:55:19;;;;;;;;;;;;;;;9.61;55.19;101821.61;106009;1269;1003633;-52
2023/12/30 04:57:47;;;;;;;;;;;;;;;9.62;55.07;101822.13;106819;1269;25382;-52
2023/12/30 05:00:16;;;;;;;;;;;;;;;9.61;55.30;101818.48;107029;1257;25343;-52
2023/12/30 05:02:46;;;;;;;;;;;;;;;9.62;55.28;101822.30;106771;1262;22505;-52
2023/12/30 05:05:15;;;;;;;;;;;;;;;9.62;55.32;101823.67;106871;1266;25347;-52
2023/12/30 05:07:42;;;;;;;;;;;;;;;9.62;55.40;101824.71;106787;1266;25408;-52
2023/12/30 05:10:12;;;;;;;;;;;;;;;9.63;55.53;101827.50;106807;1267;25302;-52
2023/12/30 05:12:40;;;;;;;;;;;;;;;9.62;55.53;101824.20;106948;1266;25299;-52
2023/12/30 05:15:07;;;;;;;;;;;;;;;9.63;55.64;101823.00;106975;1257;25328;-52
2023/12/30 05:17:34;;;;;;;;;;;;;;;9.64;55.72;101823.69;106853;1263;24448;-52
2023/12/30 05:20:01;;;;;;;;;;;;;;;9.65;55.71;101822.30;106839;1270;25268;-52
2023/12/30 05:22:29;;;;;;;;;;;;;;;9.65;55.77;101820.91;107162;1262;25334;-52
2023/12/30 05:24:56;;;;;;;;;;;;;;;9.66;55.85;101822.31;106423;1257;1003743;-52
2023/12/30 05:27:22;;;;;;;;;;;;;;;9.66;55.88;101822.14;107025;1259;25337;-52
2023/12/30 05:29:49;;;;;;;;;;;;;;;9.65;55.71;101815.20;107070;1259;25333;-52
2023/12/30 05:32:16;;;;;;;;;;;;;;;9.66;55.86;101823.87;107135;1251;25309;-52
2023/12/30 05:34:43;;;;;;;;;;;;;;;9.65;55.74;101824.20;107129;1256;23834;-52
2023/12/30 05:37:10;;;;;;;;;;;;;;;9.61;55.85;101823.35;107052;1261;25393;-52
2023/12/30 05:39:37;;;;;;;;;;;;;;;9.58;56.00;101827.15;107092;1268;25371;-52
2023/12/30 05:42:05;;;;;;;;;;;;;;;9.63;55.90;101828.89;106973;1272;25457;-52
2023/12/30 05:44:32;;;;;;;;;;;;;;;9.64;56.00;101830.44;106370;1265;1003245;-52
2023/12/30 05:46:59;;;;;;;;;;;;;;;9.64;56.05;101831.30;106357;1258;1002895;-52
2023/12/30 05:49:26;;;;;;;;;;;;;;;9.65;56.05;101826.11;106392;1267;1003034;-52
2023/12/30 05:51:53;;;;;;;;;;;;;;;9.66;56.07;101829.77;106999;1267;25319;-52
2023/12/30 05:54:20;;;;;;;;;;;;;;;9.67;56.16;101832.53;107115;1261;25480;-52
2023/12/30 05:56:47;;;;;;;;;;;;;;;9.68;56.02;101829.41;107101;1261;25302;-52
2023/12/30 05:59:14;;;;;;;;;;;;;;;9.69;56.16;101827.49;107021;1264;24310;-52
2023/12/30 06:01:45;;;;;;;;;;;;;;;9.68;56.01;101832.88;106242;1265;1002974;-52
2023/12/30 06:04:12;;;;;;;;;;;;;;;9.61;56.09;101837.37;106289;1256;1003638;-52
2023/12/30 06:06:40;;;;;;;;;;;;;;;9.57;56.22;101844.84;106848;1262;25437;-52
2023/12/30 06:09:06;;;;;;;;;;;;;;;9.57;56.45;101846.92;107114;1261;25379;-52
2023/12/30 06:11:33;;;;;;;;;;;;;;;9.59;56.40;101850.20;107051;1257;25333;-52
2023/12/30 06:14:01;;;;;;;;;;;;;;;9.57;56.43;101852.45;106819;1267;23182;-52
2023/12/30 06:16:28;;;;;;;;;;;;;;;9.52;56.48;101853.31;107162;1267;25329;-52
2023/12/30 06:18:56;;;;;;;;;;;;;;;9.49;56.55;101859.04;107027;1271;25353;-52
2023/12/30 06:21:23;;;;;;;;;;;;;;;9.47;56.89;101865.97;106791;1273;25317;-52
2023/12/30 06:23:49;;;;;;;;;;;;;;;9.49;57.11;101871.51;107010;1267;25433;-52
2023/12/30 06:26:16;;;;;;;;;;;;;;;9.55;57.19;101874.45;107089;1262;25440;-52
2023/12/30 06:28:45;;;;;;;;;;;;;;;9.60;57.07;101880.34;106030;1264;1003466;-52
2023/12/30 06:31:12;;;;;;;;;;;;;;;9.65;57.31;101883.46;107054;1268;25401;-52
2023/12/30 06:33:38;;;;;;;;;;;;;;;9.72;57.39;101884.33;106356;1256;1003264;-52
2023/12/30 06:36:06;;;;;;;;;;;;;;;9.77;57.45;101884.67;107087;1257;25367;-52
2023/12/30 06:38:35;;;;;;;;;;;;;;;9.83;57.34;101887.61;106857;1267;25357;-52
2023/12/30 06:41:05;;;;;;;;;;;;;;;9.90;57.32;101888.83;107106;1264;23740;-52
2023/12/30 06:43:32;;;;;;;;;;;;;;;9.95;57.27;101888.48;107048;1255;22996;-53
2023/12/30 06:45:59;;;;;;;;;;;;;;;10.00;57.29;101883.27;106067;1275;1003268;-52
2023/12/30 06:48:25;;;;;;;;;;;;;;;10.04;57.23;101883.94;107065;1260;25349;-52
2023/12/30 06:50:54;;;;;;;;;;;;;;;10.08;57.00;101883.77;106807;1271;25332;-52
2023/12/30 06:53:21;;;;;;;;;;;;;;;10.11;57.07;101879.98;107067;1256;22512;-52
2023/12/30 06:55:48;;;;;;;;;;;;;;;10.15;57.15;101882.92;107118;1257;25425;-52
2023/12/30 06:58:15;;;;;;;;;;;;;;;10.20;57.28;101884.13;107053;1264;25344;-53
2023/12/30 07:00:42;;;;;;;;;;;;;;;10.23;57.08;101888.28;107074;1257;25424;-53
2023/12/30 07:03:11;;;;;;;;;;;;;;;10.28;57.20;101891.91;107017;1265;25337;-53
2023/12/30 07:05:37;;;;;;;;;;;;;;;10.31;57.19;101889.47;106057;1256;1003596;-53
2023/12/30 07:08:05;;;;;;;;;;;;;;;10.36;57.22;101888.25;107163;1258;24202;-53
2023/12/30 07:10:32;;;;;;;;;;;;;;;10.40;57.37;101886.49;107088;1257;23503;-53
2023/12/30 07:12:59;;;;;;;;;;;;;;;10.43;57.42;101893.77;107041;1257;25357;-53
2023/12/30 07:15:27;;;;;;;;;;;;;;;10.47;57.54;101894.63;107100;1256;25438;-53
2023/12/30 07:17:54;;;;;;;;;;;;;;;10.50;57.65;101897.05;107079;1256;22755;-53
2023/12/30 07:20:21;;;;;;;;;;;;;;;10.52;57.65;101897.03;107225;1262;25747;-54
2023/12/30 07:22:48;;;;;;;;;;;;;;;10.56;57.72;101899.63;106727;1264;22998;-51
2023/12/30 07:25:15;;;;;;;;;;;;;;;10.60;57.84;101899.45;107044;1258;25350;-53
2023/12/30 07:27:42;;;;;;;;;;;;;;;10.64;58.01;101902.38;106800;1267;25308;-53
2023/12/30 07:30:09;;;;;;;;;;;;;;;10.68;57.95;101906.02;107202;1259;25327;-53
2023/12/30 07:32:37;;;;;;;;;;;;;;;10.71;57.97;101907.20;107153;1251;25347;-53
2023/12/30 07:35:05;;;;;;;;;;;;;;;10.76;58.09;101913.44;107109;1256;24167;-53
2023/12/30 07:37:32;;;;;;;;;;;;;;;10.82;57.98;101915.31;107134;1260;22612;-53
2023/12/30 07:40:00;;;;;;;;;;;;;;;10.86;58.02;101913.73;106979;1257;25249;-51
2023/12/30 07:42:27;;;;;;;;;;;;;;;10.91;58.01;101913.70;107130;1263;24358;-52
2023/12/30 07:44:54;;;;;;;;;;;;;;;10.98;57.94;101918.02;107027;1256;25323;-51
2023/12/30 07:47:21;;;;;;;;;;;;;;;11.03;57.70;101918.34;106882;1270;25461;-52
2023/12/30 07:49:47;;;;;;;;;;;;;;;11.07;57.39;101922.84;106297;1264;1003709;-51
2023/12/30 07:52:15;;;;;;;;;;;;;;;11.10;56.94;101923.17;106931;1274;25490;-52
2023/12/30 07:54:42;;;;;;;;;;;;;;;11.11;56.61;101923.85;107147;1251;25321;-51
2023/12/30 07:57:09;;;;;;;;;;;;;;;11.09;56.43;101924.05;107087;1263;25351;-51
2023/12/30 07:59:36;;;;;;;;;;;;;;;11.10;56.24;101926.98;107141;1257;25296;-52
2023/12/30 08:02:03;;;;;;;;;;;;;;;11.10;56.16;101929.59;107145;1257;25524;-52
2023/12/30 08:04:30;;;;;;;;;;;;;;;11.10;56.04;101931.51;107039;1257;25388;-51
2023/12/30 08:06:57;;;;;;;;;;;;;;;11.10;55.93;101928.38;107096;1257;25301;-52
2023/12/30 08:09:24;;;;;;;;;;;;;;;11.09;55.88;101926.46;107167;1257;25396;-52
2023/12/30 08:11:51;;;;;;;;;;;;;;;11.09;55.64;101928.02;107101;1257;25329;-52
2023/12/30 08:14:29;;;;;;;;;;;;;;;11.09;55.62;101931.16;107104;1267;25309;-52
2023/12/30 08:16:58;;;;;;;;;;;;;;;11.09;55.53;101926.99;107086;1254;23240;-52
2023/12/30 08:19:24;;;;;;;;;;;;;;;11.09;55.54;101927.00;107090;1256;22510;-51
2023/12/30 08:21:52;;;;;;;;;;;;;;;11.11;55.48;101934.10;107189;1264;25318;-51
2023/12/30 08:24:20;;;;;;;;;;;;;;;11.12;55.50;101932.52;106235;1267;1003520;-51
2023/12/30 08:26:47;;;;;;;;;;;;;;;11.14;55.40;101934.43;107104;1265;25334;-52
2023/12/30 08:29:15;;;;;;;;;;;;;;;11.15;55.57;101932.52;107116;1267;25318;-51
2023/12/30 08:31:45;;;;;;;;;;;;;;;11.18;55.58;101937.19;106788;1272;25396;-51
2023/12/30 08:34:13;;;;;;;;;;;;;;;11.20;55.44;101932.48;107086;1267;25469;-51
2023/12/30 08:36:40;;;;;;;;;;;;;;;11.24;55.49;101931.42;107076;1267;25261;-52
2023/12/30 08:39:07;;;;;;;;;;;;;;;11.27;55.35;101925.66;107122;1267;23312;-52
2023/12/30 08:41:35;;;;;;;;;;;;;;;11.31;55.37;101924.78;106708;1267;25375;-52
2023/12/30 08:44:02;;;;;;;;;;;;;;;11.35;55.48;101917.27;106369;1267;1002363;-52
2023/12/30 08:46:30;;;;;;;;;;;;;;;11.40;55.39;101912.74;107159;1267;25423;-51
2023/12/30 08:48:57;;;;;;;;;;;;;;;11.47;55.36;101912.17;107131;1267;25235;-51
2023/12/30 08:51:25;;;;;;;;;;;;;;;11.52;55.33;101907.95;107167;1267;25320;-51
2023/12/30 08:53:54;;;;;;;;;;;;;;;11.57;55.32;101902.36;107087;1267;25523;-51
2023/12/30 08:56:21;;;;;;;;;;;;;;;11.62;55.30;101898.14;107183;1267;22741;-51
2023/12/30 08:58:48;;;;;;;;;;;;;;;11.67;55.09;101892.22;107109;1267;25325;-51
2023/12/30 09:01:15;;;;;;;;;;;;;;;11.72;55.02;101885.05;107122;1270;25368;-51
2023/12/30 09:03:42;;;;;;;;;;;;;;;11.76;54.77;101888.33;107066;1267;25477;-51
2023/12/30 09:06:09;;;;;;;;;;;;;;;11.79;54.51;101885.86;107026;1255;25327;-51
2023/12/30 09:08:37;;;;;;;;;;;;;;;11.82;54.44;101882.55;106883;1267;25411;-51
2023/12/30 09:11:05;;;;;;;;;;;;;;;11.83;54.35;101877.32;107171;1267;25344;-52
2023/12/30 09:13:32;;;;;;;;;;;;;;;11.85;54.17;101875.21;107009;1270;22512;-51
2023/12/30 09:15:59;;;;;;;;;;;;;;;11.87;54.10;101872.77;107027;1271;25392;-51
2023/12/30 09:18:28;;;;;;;;;;;;;;;11.90;53.92;101869.60;107392;1267;25458;-52
2023/12/30 09:20:55;;;;;;;;;;;;;;;11.93;53.50;101866.80;107161;1267;25466;-52
2023/12/30 09:23:22;;;;;;;;;;;;;;;11.90;53.24;101860.57;107186;1254;25347;-52
2023/12/30 09:25:49;;;;;;;;;;;;;;;11.81;52.96;101851.45;107251;1267;25378;-53
2023/12/30 09:28:16;;;;;;;;;;;;;;;11.70;53.07;101854.31;107135;1270;25525;-51
2023/12/30 09:30:43;;;;;;;;;;;;;;;11.63;53.49;101854.88;106998;1267;22672;-52
2023/12/30 09:33:11;;;;;;;;;;;;;;;11.60;53.62;101859.59;107339;1266;25300;-53
2023/12/30 09:35:39;;;;;;;;;;;;;;;11.59;53.75;101855.23;107024;1267;25330;-53
2023/12/30 09:38:06;;;;;;;;;;;;;;;11.58;53.89;101853.34;107087;1267;25308;-53
2023/12/30 09:40:33;;;;;;;;;;;;;;;11.58;53.97;101852.30;107125;1267;25309;-53
2023/12/30 09:43:03;;;;;;;;;;;;;;;11.57;54.10;101845.35;107081;1267;23284;-52
2023/12/30 09:45:31;;;;;;;;;;;;;;;11.57;54.10;101842.58;106338;1267;1003473;-53
2023/12/30 09:47:58;;;;;;;;;;;;;;;11.57;54.28;101838.77;106974;1273;24209;-53
2023/12/30 09:50:27;;;;;;;;;;;;;;;11.57;54.19;101833.20;106873;1273;25373;-53
2023/12/30 09:52:55;;;;;;;;;;;;;;;11.59;54.29;101830.23;106787;1254;24218;-54
2023/12/30 09:55:24;;;;;;;;;;;;;;;11.61;54.37;101832.46;107038;1267;25523;-54
2023/12/30 09:57:51;;;;;;;;;;;;;;;11.62;54.47;101820.82;107089;1267;25390;-54
2023/12/30 10:00:19;;;;;;;;;;;;;;;11.62;54.55;101820.29;107087;1267;25308;-53
2023/12/30 10:02:47;;;;;;;;;;;;;;;11.64;54.68;101815.58;106852;1270;25237;-54
2023/12/30 10:05:15;;;;;;;;;;;;;;;11.67;54.84;101813.14;107165;1270;25367;-53
2023/12/30 10:07:43;;;;;;;;;;;;;;;11.71;54.91;101810.50;107459;1264;22509;-52
2023/12/30 10:10:10;;;;;;;;;;;;;;;11.77;54.98;101803.31;107413;1265;22518;-52
2023/12/30 10:12:38;;;;;;;;;;;;;;;11.82;54.94;101799.45;106901;1267;1003102;-53
2023/12/30 10:15:06;;;;;;;;;;;;;;;11.83;54.94;101796.66;107197;1267;25381;-53
2023/12/30 10:17:34;;;;;;;;;;;;;;;11.91;54.72;101790.66;107308;1266;25443;-52
2023/12/30 10:20:05;;;;;;;;;;;;;;;11.95;54.67;101790.60;107433;1267;25306;-53
2023/12/30 10:22:34;;;;;;;;;;;;;;;11.99;54.59;101784.31;106960;1267;25428;-53
2023/12/30 10:25:02;;;;;;;;;;;;;;;12.02;54.37;101780.27;106969;1267;25466;-53
2023/12/30 10:27:29;;;;;;;;;;;;;;;12.06;54.30;101778.30;107065;1267;23263;-53
2023/12/30 10:29:56;;;;;;;;;;;;;;;12.12;54.25;101774.41;107128;1269;25466;-53
2023/12/30 10:32:29;;;;;;;;;;;;;;;12.17;54.02;101771.04;107328;1268;22567;-52
2023/12/30 10:34:56;;;;;;;;;;;;;;;12.23;54.00;101760.70;107106;1267;25347;-53
2023/12/30 10:37:22;;;;;;;;;;;;;;;12.31;53.76;101758.86;107216;1267;24235;-53
2023/12/30 10:39:49;;;;;;;;;;;;;;;12.37;53.70;101758.44;107342;1256;23887;-53
2023/12/30 10:42:16;;;;;;;;;;;;;;;12.44;53.44;101755.04;107222;1269;25375;-53
2023/12/30 10:44:44;;;;;;;;;;;;;;;12.48;53.37;101753.08;106993;1272;24332;-53
2023/12/30 10:47:14;;;;;;;;;;;;;;;12.52;53.30;101749.86;107103;1266;25517;-53
2023/12/30 10:49:44;;;;;;;;;;;;;;;12.56;53.28;101745.30;106890;1274;25296;-53
2023/12/30 10:52:12;;;;;;;;;;;;;;;12.60;53.26;101740.03;106603;1267;1003057;-52
2023/12/30 10:54:40;;;;;;;;;;;;;;;12.64;53.18;101742.73;107061;1270;22524;-52
2023/12/30 10:57:08;;;;;;;;;;;;;;;12.68;53.14;101736.94;107360;1266;25258;-52
2023/12/30 10:59:35;;;;;;;;;;;;;;;12.73;52.85;101731.64;107245;1267;24333;-52
2023/12/30 11:02:03;;;;;;;;;;;;;;;12.76;52.79;101729.52;107110;1267;24266;-52
2023/12/30 11:04:30;;;;;;;;;;;;;;;12.78;52.77;101722.69;107182;1266;22539;-52
2023/12/30 11:06:57;;;;;;;;;;;;;;;12.80;52.63;101718.46;107087;1272;25378;-52
2023/12/30 11:09:27;;;;;;;;;;;;;;;12.84;52.64;101709.19;107196;1266;25494;-52
2023/12/30 11:11:55;;;;;;;;;;;;;;;12.87;52.53;101701.83;107095;1268;22511;-52
2023/12/30 11:14:22;;;;;;;;;;;;;;;12.88;52.48;101697.63;107162;1260;25365;-52
2023/12/30 11:16:52;;;;;;;;;;;;;;;12.89;52.43;101694.66;107295;1269;25497;-52
2023/12/30 11:19:29;;;;;;;;;;;;;;;12.89;52.51;101691.86;107051;1259;25390;-52
2023/12/30 11:22:00;;;;;;;;;;;;;;;12.92;52.44;101690.07;107386;1266;25430;-52
2023/12/30 11:24:28;;;;;;;;;;;;;;;12.94;52.38;101683.41;107198;1270;25354;-53
2023/12/30 11:26:55;;;;;;;;;;;;;;;12.95;52.47;101674.34;107361;1266;22644;-52
2023/12/30 11:29:25;;;;;;;;;;;;;;;12.96;52.47;101672.58;107587;1267;24359;-53
2023/12/30 11:31:54;;;;;;;;;;;;;;;12.96;52.52;101672.58;107035;1270;24245;-52
2023/12/30 11:34:21;;;;;;;;;;;;;;;12.97;52.63;101675.17;106906;1273;25535;-52
2023/12/30 11:36:50;;;;;;;;;;;;;;;12.98;52.64;101683.33;107002;1267;22518;-52
2023/12/30 11:39:38;;;;;;;;;;;;;;;13.00;52.56;101692.02;106794;1271;22703;-52
2023/12/30 11:42:06;;;;;;;;;;;;;;;13.01;52.47;101690.79;106314;1277;25403;-52
2023/12/30 11:44:33;;;;;;;;;;;;;;;13.02;52.63;101683.45;106487;1276;24217;-52
2023/12/30 11:47:00;;;;;;;;;;;;;;;13.04;52.67;101685.87;106209;1275;22535;-53
2023/12/30 11:49:28;;;;;;;;;;;;;;;13.06;52.72;101684.10;106679;1275;23524;-53
2023/12/30 11:52:02;;;;;;;;;;;;;;;13.09;52.79;101684.59;106290;1276;22517;-51
2023/12/30 11:54:29;;;;;;;;;;;;;;;13.13;52.87;101684.52;106424;1276;22581;-52
2023/12/30 11:56:56;;;;;;;;;;;;;;;13.17;52.88;101675.73;106396;1276;25432;-52
2023/12/30 11:59:23;;;;;;;;;;;;;;;13.21;53.07;101675.66;106380;1277;24187;-51
2023/12/30 12:01:51;;;;;;;;;;;;;;;13.27;53.04;101676.44;106359;1273;22520;-52
2023/12/30 12:04:18;;;;;;;;;;;;;;;13.31;53.10;101678.28;106342;1276;25403;-52
2023/12/30 12:06:46;;;;;;;;;;;;;;;13.35;53.01;101673.84;106343;1277;25422;-52
2023/12/30 12:09:13;;;;;;;;;;;;;;;13.39;52.99;101670.28;106447;1276;25581;-52
2023/12/30 12:11:40;;;;;;;;;;;;;;;13.42;53.18;101669.34;106297;1276;298385;-53
2023/12/30 12:14:08;;;;;;;;;;;;;;;13.46;53.16;101670.30;106237;1283;25498;-53
2023/12/30 12:16:35;;;;;;;;;;;;;;;13.51;53.21;101668.30;106549;1275;25418;-52
2023/12/30 12:19:03;;;;;;;;;;;;;;;13.55;53.29;101669.11;107058;1267;25353;-52
2023/12/30 12:21:31;;;;;;;;;;;;;;;13.59;53.15;101667.61;107626;1269;22494;-51
2023/12/30 12:23:58;;;;;;;;;;;;;;;13.64;53.09;101665.27;107144;1266;25382;-52
2023/12/30 12:26:25;;;;;;;;;;;;;;;13.68;53.06;101665.70;106789;1271;25316;-52
2023/12/30 12:28:57;;;;;;;;;;;;;;;13.73;52.97;101671.54;106992;1271;25334;-52
2023/12/30 12:31:31;;;;;;;;;;;;;;;13.77;52.92;101671.61;107343;1267;22531;-53